Country
Station

 

Weather  for  Beaumont/Port Arthur, Jefferson County Airport  -  United States    United States

  
33 °C (91 °F)
    
 
 

Current METAR for Beaumont/Port Arthur, Jefferson County Airport is :

KBPT 191653Z 18011KT 10SM FEW030 33/24 A3005 RMK AO2 SLP175 T03330239

 

This is a report for Beaumont/Port Arthur, Jefferson County Airport - United States.
 
The report was made 28 minutes ago, at 16:53 UTC .
The wind was blowing at a speed of 5.7 meters per second (12.7 miles per hour) from south (180°).
 
The temperature was 33 °C (91 °F), with a dew-point at 24 °C (75 °F).
The temperature felt like 39 °C (102 °F).
 
The atmospheric pressure was 1018 hPa (30.05 inHg).
The relative humidity was 59.3%.
 
There were a few clouds at a height of 914 meters (3000 feet).
 
The overall visibility was 16.1 kilometers (10.0 miles).
 

 
 
 
 

Country :   A   B   C   D   E   F   G   H   I   J   K   L   M   N   O   P   Q   R   S   T   U   V   W   Y   Z

 

Site Info  |  Disclaimer  |  Credits  |  Privacy
Contact us  |  Add to favorites
© 2013-2019 METARs - All rights reserved